createdAt,value
2022-08-01T00:01:16.984Z,5.13
2022-08-01T00:04:19.125Z,5.78
2022-08-01T00:07:21.092Z,4.47
2022-08-01T00:10:23.266Z,10.30
2022-08-01T00:13:25.391Z,5.32
2022-08-01T00:16:27.523Z,4.93
2022-08-01T00:19:29.683Z,4.30
2022-08-01T00:22:32.459Z,4.65
2022-08-01T00:25:34.773Z,5.13
2022-08-01T00:28:36.582Z,5.80
2022-08-01T00:31:38.410Z,13.23
2022-08-01T00:34:40.515Z,6.90
2022-08-01T00:37:42.339Z,5.93
2022-08-01T00:40:44.360Z,13.60
2022-08-01T00:43:46.392Z,11.63
2022-08-01T00:46:48.193Z,15.30
2022-08-01T00:49:50.095Z,13.63
2022-08-01T00:52:52.343Z,17.58
2022-08-01T00:55:54.692Z,13.38
2022-08-01T00:58:56.857Z,9.95
2022-08-01T01:01:59.344Z,4.72
2022-08-01T01:05:03.975Z,6.35
2022-08-01T01:08:21.010Z,10.73
2022-08-01T01:11:55.269Z,9.13
2022-08-01T01:15:26.873Z,9.20
2022-08-01T01:18:33.576Z,5.43
2022-08-01T01:21:58.850Z,13.27
2022-08-01T01:25:28.219Z,19.92
2022-08-01T01:28:54.763Z,7.95
2022-08-01T01:31:57.586Z,5.10
2022-08-01T01:35:00.026Z,3.65
2022-08-01T01:38:10.547Z,2.80
2022-08-01T01:41:13.358Z,4.65
2022-08-01T01:44:16.526Z,4.95
2022-08-01T01:47:18.790Z,5.07
2022-08-01T01:50:25.016Z,4.35
2022-08-01T01:53:37.665Z,5.93
2022-08-01T01:56:49.753Z,5.72
2022-08-01T01:59:52.504Z,11.25
2022-08-01T02:02:55.338Z,5.93
2022-08-01T02:05:58.129Z,11.60
2022-08-01T02:09:00.297Z,7.57
2022-08-01T02:12:09.214Z,4.25
2022-08-01T02:15:12.786Z,7.25
2022-08-01T02:18:16.367Z,9.75
2022-08-01T02:21:24.342Z,10.73
2022-08-01T02:24:39.875Z,28.98
2022-08-01T02:27:46.869Z,11.63
2022-08-01T02:34:00.219Z,18.75
2022-08-01T02:37:05.818Z,48.03
2022-08-01T02:40:09.572Z,7.80
2022-08-01T02:43:19.522Z,15.27
2022-08-01T02:46:25.678Z,30.10
2022-08-01T02:49:28.808Z,25.70
2022-08-01T02:52:31.692Z,34.20
2022-08-01T02:55:33.959Z,16.38
2022-08-01T02:58:38.455Z,26.10
2022-08-01T03:01:42.170Z,27.98
2022-08-01T03:04:46.007Z,49.42
2022-08-01T03:07:48.940Z,16.27
2022-08-01T03:10:51.886Z,11.23
2022-08-01T03:13:55.381Z,4.38
2022-08-01T03:16:57.552Z,37.35
2022-08-01T03:20:00.286Z,14.40
2022-08-01T03:23:07.178Z,20.85
2022-08-01T03:26:09.448Z,6.20
2022-08-01T03:29:17.710Z,4.65
2022-08-01T03:32:20.881Z,13.63
2022-08-01T03:35:23.633Z,11.27
2022-08-01T03:38:27.625Z,7.15
2022-08-01T03:41:34.208Z,18.35
2022-08-01T03:44:40.134Z,36.28
2022-08-01T03:47:44.862Z,32.33
2022-08-01T03:50:52.659Z,35.00
2022-08-01T03:53:57.354Z,35.80
2022-08-01T03:56:59.613Z,34.10
2022-08-01T04:00:02.445Z,31.90
2022-08-01T04:03:14.785Z,21.40
2022-08-01T04:06:16.693Z,26.35
2022-08-01T04:09:19.152Z,16.27
2022-08-01T04:12:22.033Z,12.80
2022-08-01T04:15:24.935Z,24.10
2022-08-01T04:18:27.206Z,13.23
2022-08-01T04:21:30.311Z,26.83
2022-08-01T04:24:33.945Z,56.70
2022-08-01T04:27:50.527Z,26.27
2022-08-01T04:31:01.639Z,13.77
2022-08-01T04:34:06.287Z,30.05
2022-08-01T04:37:11.232Z,26.25
2022-08-01T04:43:17.412Z,24.65
2022-08-01T04:46:20.155Z,36.30
2022-08-01T04:49:29.999Z,12.27
2022-08-01T04:52:35.829Z,13.82
2022-08-01T04:55:37.734Z,22.20
2022-08-01T04:58:42.006Z,14.90
2022-08-01T05:01:43.990Z,13.43
2022-08-01T05:04:46.948Z,9.60
2022-08-01T05:07:48.873Z,8.50
2022-08-01T05:10:51.058Z,9.43
2022-08-01T05:13:53.693Z,8.13
2022-08-01T05:16:55.985Z,7.07
2022-08-01T05:19:57.960Z,7.00
2022-08-01T05:23:00.100Z,7.50
2022-08-01T05:26:06.302Z,8.02
2022-08-01T05:29:08.540Z,10.63
2022-08-01T05:32:10.961Z,5.75
2022-08-01T05:35:15.249Z,4.75
2022-08-01T05:38:17.702Z,5.55
2022-08-01T05:41:19.843Z,11.38
2022-08-01T05:44:21.851Z,4.80
2022-08-01T05:47:24.101Z,3.90
2022-08-01T05:50:26.505Z,5.20
2022-08-01T05:53:28.427Z,4.55
2022-08-01T05:56:32.302Z,5.60
2022-08-01T05:59:34.880Z,4.55
2022-08-01T06:02:41.710Z,5.60
2022-08-01T06:05:43.807Z,4.70
2022-08-01T06:08:45.733Z,4.13
2022-08-01T06:11:47.766Z,4.07
2022-08-01T06:14:49.960Z,4.00
2022-08-01T06:17:52.096Z,3.90
2022-08-01T06:20:54.125Z,3.70
2022-08-01T06:23:56.177Z,4.38
2022-08-01T06:26:58.397Z,3.30
2022-08-01T06:30:00.668Z,3.88
2022-08-01T06:33:04.063Z,4.97
2022-08-01T06:36:06.304Z,3.53
2022-08-01T06:39:08.417Z,3.40
2022-08-01T06:42:11.030Z,4.22
2022-08-01T06:45:14.135Z,4.28
2022-08-01T06:48:16.220Z,3.65
2022-08-01T06:51:21.078Z,4.50
2022-08-01T06:54:23.781Z,3.80
2022-08-01T06:57:25.825Z,4.90
2022-08-01T07:00:28.510Z,3.63
2022-08-01T07:03:54.084Z,4.05
2022-08-01T07:06:53.003Z,3.70
2022-08-01T07:09:55.179Z,3.65
2022-08-01T07:12:57.270Z,6.00
2022-08-01T07:15:59.537Z,5.55
2022-08-01T07:19:03.392Z,3.58
2022-08-01T07:22:05.715Z,3.50
2022-08-01T07:25:09.202Z,4.07
2022-08-01T07:28:11.123Z,3.17
2022-08-01T07:31:13.770Z,2.70
2022-08-01T07:34:15.720Z,2.75
2022-08-01T07:37:19.353Z,3.83
2022-08-01T07:40:40.482Z,2.33
2022-08-01T07:43:47.350Z,4.15
2022-08-01T07:46:52.565Z,3.55
2022-08-01T07:50:00.964Z,3.42
2022-08-01T07:53:04.787Z,1.80
2022-08-01T07:56:07.557Z,1.70
2022-08-01T07:59:10.764Z,2.55
2022-08-01T08:02:15.158Z,1.73
2022-08-01T08:05:58.008Z,6.57
2022-08-01T08:08:44.413Z,3.72
2022-08-01T08:11:48.437Z,9.07
2022-08-01T08:14:50.911Z,2.55
2022-08-01T08:17:55.279Z,2.35
2022-08-01T08:20:57.375Z,1.55
2022-08-01T08:24:17.863Z,3.92
2022-08-01T08:27:19.809Z,3.03
2022-08-01T08:30:22.036Z,2.10
2022-08-01T08:33:24.696Z,1.70
2022-08-01T08:36:34.725Z,1.80
2022-08-01T08:39:42.010Z,4.07
2022-08-01T08:42:44.502Z,1.90
2022-08-01T08:45:59.517Z,5.20
2022-08-01T08:49:04.876Z,1.90
2022-08-01T08:52:09.461Z,1.70
2022-08-01T08:55:15.507Z,2.67
2022-08-01T08:58:19.451Z,2.50
2022-08-01T09:01:22.945Z,2.22
2022-08-01T09:04:26.629Z,2.55
2022-08-01T09:07:28.837Z,4.53
2022-08-01T09:10:30.816Z,3.65
2022-08-01T09:13:33.046Z,2.90
2022-08-01T09:16:47.959Z,4.60
2022-08-01T09:19:54.653Z,4.47
2022-08-01T09:22:56.775Z,2.78
2022-08-01T09:25:59.269Z,2.25
2022-08-01T09:29:05.618Z,2.42
2022-08-01T09:32:13.868Z,4.60
2022-08-01T09:35:36.474Z,3.35
2022-08-01T09:38:50.871Z,3.55
2022-08-01T09:41:54.859Z,3.60
2022-08-01T09:44:58.366Z,3.72
2022-08-01T09:48:07.660Z,2.72
2022-08-01T09:51:14.143Z,3.00
2022-08-01T09:54:36.096Z,2.65
2022-08-01T09:57:40.262Z,5.15
2022-08-01T10:00:45.571Z,3.10
2022-08-01T10:03:47.898Z,3.15
2022-08-01T10:06:55.575Z,3.15
2022-08-01T10:10:11.489Z,6.57
2022-08-01T10:13:13.579Z,3.85
2022-08-01T10:16:17.140Z,4.15
2022-08-01T10:19:19.905Z,3.38
2022-08-01T10:22:25.003Z,2.83
2022-08-01T10:25:42.737Z,3.88
2022-08-01T10:28:49.655Z,4.30
2022-08-01T10:31:51.916Z,4.63
2022-08-01T10:34:55.763Z,4.80
2022-08-01T10:37:59.597Z,4.68
2022-08-01T10:41:06.514Z,2.63
2022-08-01T10:44:10.633Z,3.60
2022-08-01T10:47:18.143Z,6.13
2022-08-01T10:50:28.642Z,2.42
2022-08-01T10:53:42.837Z,2.95
2022-08-01T10:56:50.657Z,3.35
2022-08-01T11:00:01.178Z,3.60
2022-08-01T11:03:05.062Z,3.13
2022-08-01T11:06:08.857Z,5.60
2022-08-01T11:09:16.397Z,6.07
2022-08-01T11:12:24.463Z,2.42
2022-08-01T11:15:30.862Z,2.40
2022-08-01T11:18:33.985Z,2.92
2022-08-01T11:22:01.642Z,2.63
2022-08-01T11:25:04.616Z,5.43
2022-08-01T11:28:28.467Z,2.95
2022-08-01T11:31:37.716Z,2.35
2022-08-01T11:34:56.833Z,3.17
2022-08-01T11:38:25.311Z,5.25
2022-08-01T11:41:38.184Z,1.95
2022-08-01T11:44:51.498Z,2.55
2022-08-01T11:47:53.430Z,2.95
2022-08-01T11:50:58.019Z,9.73
2022-08-01T11:54:04.595Z,2.63
2022-08-01T11:57:17.066Z,2.13
2022-08-01T12:00:19.982Z,2.80
2022-08-01T12:03:33.479Z,2.60
2022-08-01T12:06:36.368Z,3.40
2022-08-01T12:09:38.507Z,3.22
2022-08-01T12:12:49.725Z,2.38
2022-08-01T12:15:56.485Z,2.92
2022-08-01T12:18:58.735Z,2.30
2022-08-01T12:22:14.962Z,2.78
2022-08-01T12:25:18.911Z,5.13
2022-08-01T12:28:21.045Z,3.47
2022-08-01T12:31:33.096Z,2.13
2022-08-01T12:34:35.569Z,2.17
2022-08-01T12:37:49.119Z,6.30
2022-08-01T12:40:52.858Z,2.83
2022-08-01T12:43:55.313Z,4.70
2022-08-01T12:46:57.823Z,3.45
2022-08-01T12:49:59.990Z,6.82
2022-08-01T12:53:03.264Z,2.25
2022-08-01T12:56:05.300Z,2.15
2022-08-01T12:59:27.576Z,2.30
2022-08-01T13:02:34.458Z,1.85
2022-08-01T13:05:42.819Z,2.28
2022-08-01T13:08:45.009Z,1.85
2022-08-01T13:11:56.264Z,4.45
2022-08-01T13:15:19.741Z,2.08
2022-08-01T13:18:29.848Z,1.90
2022-08-01T13:21:34.455Z,2.65
2022-08-01T13:25:22.449Z,2.20
2022-08-01T13:28:28.305Z,2.35
2022-08-01T13:31:34.556Z,1.80
2022-08-01T13:34:36.571Z,4.55
2022-08-01T13:37:39.548Z,4.95
2022-08-01T13:40:41.489Z,3.25
2022-08-01T13:43:58.390Z,3.30
2022-08-01T13:47:14.919Z,1.38
2022-08-01T13:50:18.858Z,2.38
2022-08-01T13:53:20.902Z,3.78
2022-08-01T13:56:22.914Z,2.90
2022-08-01T13:59:24.861Z,2.10
2022-08-01T14:02:30.155Z,2.10
2022-08-01T14:05:32.326Z,4.75
2022-08-01T14:08:34.501Z,2.10
2022-08-01T14:11:37.148Z,2.53
2022-08-01T14:14:39.580Z,2.38
2022-08-01T14:17:47.600Z,2.03
2022-08-01T14:20:50.203Z,2.50
2022-08-01T14:23:55.953Z,2.30
2022-08-01T14:26:58.286Z,4.22
2022-08-01T14:30:03.774Z,1.95
2022-08-01T14:33:06.198Z,1.73
2022-08-01T14:36:31.070Z,2.95
2022-08-01T14:39:30.474Z,4.40
2022-08-01T14:42:32.660Z,3.05
2022-08-01T14:45:34.862Z,2.25
2022-08-01T14:48:37.085Z,4.50
2022-08-01T14:51:39.392Z,4.47
2022-08-01T14:54:41.495Z,2.05
2022-08-01T14:57:43.829Z,4.57
2022-08-01T15:00:46.665Z,3.15
2022-08-01T15:03:49.340Z,2.05
2022-08-01T15:06:51.891Z,2.33
2022-08-01T15:09:54.183Z,1.75
2022-08-01T15:12:56.766Z,5.28
2022-08-01T15:15:59.815Z,2.10
2022-08-01T15:19:02.948Z,1.88
2022-08-01T15:22:05.346Z,1.80
2022-08-01T15:25:07.932Z,2.40
2022-08-01T15:28:11.311Z,1.45
2022-08-01T15:31:14.411Z,2.15
2022-08-01T15:34:16.759Z,1.45
2022-08-01T15:37:18.863Z,1.73
2022-08-01T15:40:20.834Z,2.40
2022-08-01T15:43:22.921Z,4.70
2022-08-01T15:46:25.543Z,2.17
2022-08-01T15:49:27.773Z,1.67
2022-08-01T15:52:31.970Z,2.35
2022-08-01T15:55:38.592Z,1.70
2022-08-01T16:01:43.074Z,1.23
2022-08-01T16:04:45.315Z,1.55
2022-08-01T16:07:58.029Z,3.80
2022-08-01T16:11:03.862Z,2.08
2022-08-01T16:14:06.776Z,1.42
2022-08-01T16:17:09.064Z,2.67
2022-08-01T16:20:11.603Z,1.88
2022-08-01T16:23:15.374Z,1.35
2022-08-01T16:26:27.058Z,1.80
2022-08-01T16:29:31.517Z,1.95
2022-08-01T16:32:40.429Z,3.05
2022-08-01T16:35:47.523Z,6.13
2022-08-01T16:38:52.336Z,2.60
2022-08-01T16:41:55.124Z,2.35
2022-08-01T16:45:03.989Z,2.42
2022-08-01T16:48:23.509Z,4.03
2022-08-01T16:51:25.700Z,3.67
2022-08-01T16:54:28.406Z,4.30
2022-08-01T16:57:36.950Z,2.97
2022-08-01T17:00:42.991Z,3.00
2022-08-01T17:03:53.081Z,5.13
2022-08-01T17:06:58.043Z,5.10
2022-08-01T17:10:01.248Z,4.57
2022-08-01T17:13:04.146Z,1.90
2022-08-01T17:16:08.104Z,3.13
2022-08-01T17:19:10.655Z,2.92
2022-08-01T17:22:13.445Z,2.28
2022-08-01T17:25:16.230Z,1.85
2022-08-01T17:28:18.636Z,5.90
2022-08-01T17:31:20.500Z,2.33
2022-08-01T17:34:22.470Z,2.28
2022-08-01T17:37:26.232Z,3.35
2022-08-01T17:40:39.996Z,3.40
2022-08-01T17:43:42.465Z,2.00
2022-08-01T17:46:44.766Z,2.22
2022-08-01T17:49:54.841Z,1.73
2022-08-01T17:52:57.270Z,2.92
2022-08-01T17:56:00.943Z,2.45
2022-08-01T17:59:03.118Z,4.13
2022-08-01T18:02:05.364Z,7.03
2022-08-01T18:05:10.659Z,3.05
2022-08-01T18:08:13.016Z,2.80
2022-08-01T18:11:17.357Z,3.83
2022-08-01T18:14:19.736Z,2.80
2022-08-01T18:17:22.387Z,2.17
2022-08-01T18:20:25.951Z,5.50
2022-08-01T18:23:27.964Z,3.40
2022-08-01T18:26:30.205Z,3.75
2022-08-01T18:29:46.698Z,3.20
2022-08-01T18:32:50.217Z,3.95
2022-08-01T18:35:54.032Z,4.15
2022-08-01T18:38:56.244Z,4.07
2022-08-01T18:42:00.768Z,6.05
2022-08-01T18:45:03.037Z,4.00
2022-08-01T18:48:05.734Z,2.17
2022-08-01T18:51:08.564Z,2.50
2022-08-01T18:54:14.946Z,7.70
2022-08-01T18:57:22.922Z,4.47
2022-08-01T19:03:26.957Z,3.78
2022-08-01T19:06:29.227Z,5.40
2022-08-01T19:09:31.732Z,5.60
2022-08-01T19:12:33.841Z,2.65
2022-08-01T19:15:36.723Z,2.85
2022-08-01T19:18:40.764Z,5.40
2022-08-01T19:21:45.042Z,3.45
2022-08-01T19:24:47.791Z,2.25
2022-08-01T19:27:50.799Z,2.95
2022-08-01T19:30:53.920Z,3.35
2022-08-01T19:33:58.211Z,6.25
2022-08-01T19:37:00.265Z,5.50
2022-08-01T19:40:03.801Z,4.18
2022-08-01T19:43:07.288Z,4.60
2022-08-01T19:46:17.216Z,3.00
2022-08-01T19:49:22.638Z,3.55
2022-08-01T19:52:26.843Z,3.33
2022-08-01T19:55:32.724Z,3.15
2022-08-01T19:58:39.884Z,4.60
2022-08-01T20:01:42.639Z,3.63
2022-08-01T20:04:44.815Z,3.58
2022-08-01T20:07:47.443Z,5.57
2022-08-01T20:10:49.919Z,3.85
2022-08-01T20:13:52.157Z,5.15
2022-08-01T20:16:56.000Z,4.32
2022-08-01T20:19:58.376Z,3.83
2022-08-01T20:23:01.355Z,7.22
2022-08-01T20:26:04.529Z,5.47
2022-08-01T20:29:07.218Z,3.15
2022-08-01T20:32:10.674Z,3.53
2022-08-01T20:35:12.711Z,7.35
2022-08-01T20:38:16.403Z,3.25
2022-08-01T20:41:19.696Z,5.28
2022-08-01T20:44:23.186Z,3.75
2022-08-01T20:47:25.958Z,6.03
2022-08-01T20:50:53.737Z,3.40
2022-08-01T20:53:57.048Z,4.78
2022-08-01T20:57:08.273Z,3.55
2022-08-01T21:00:11.487Z,3.65
2022-08-01T21:03:24.462Z,3.75
2022-08-01T21:06:31.492Z,8.15
2022-08-01T21:09:39.335Z,3.10
2022-08-01T21:13:20.547Z,6.72
2022-08-01T21:16:30.113Z,14.68
2022-08-01T21:19:34.811Z,4.00
2022-08-01T21:23:16.256Z,3.92
2022-08-01T21:26:21.110Z,5.78
2022-08-01T21:29:25.365Z,4.55
2022-08-01T21:32:30.166Z,8.88
2022-08-01T21:35:33.212Z,5.13
2022-08-01T21:38:36.805Z,7.15
2022-08-01T21:41:56.070Z,4.43
2022-08-01T21:45:03.650Z,5.20
2022-08-01T21:48:06.773Z,12.43
2022-08-01T21:51:18.505Z,3.40
2022-08-01T21:54:29.726Z,4.05
2022-08-01T21:57:56.122Z,8.52
2022-08-01T22:01:06.964Z,5.93
2022-08-01T22:04:14.099Z,3.92
2022-08-01T22:07:18.604Z,7.60
2022-08-01T22:10:21.307Z,6.38
2022-08-01T22:13:24.333Z,4.78
2022-08-01T22:16:27.186Z,6.50
2022-08-01T22:19:44.150Z,6.60
2022-08-01T22:22:52.099Z,3.95
2022-08-01T22:25:56.680Z,4.82
2022-08-01T22:28:59.186Z,6.45
2022-08-01T22:32:04.600Z,4.97
2022-08-01T22:35:10.817Z,7.28
2022-08-01T22:38:13.519Z,4.97
2022-08-01T22:41:22.494Z,5.85
2022-08-01T22:44:38.214Z,4.18
2022-08-01T22:47:54.573Z,9.75
2022-08-01T22:51:07.262Z,7.00
2022-08-01T22:54:14.430Z,6.05
2022-08-01T22:57:31.356Z,7.43
2022-08-01T23:00:36.295Z,7.40
2022-08-01T23:03:41.744Z,6.43
2022-08-01T23:06:46.079Z,10.00
2022-08-01T23:09:53.921Z,6.22
2022-08-01T23:12:56.942Z,5.88
2022-08-01T23:16:00.266Z,6.13
2022-08-01T23:19:04.437Z,7.90
2022-08-01T23:22:06.750Z,8.07
2022-08-01T23:25:11.487Z,6.55
2022-08-01T23:28:14.870Z,6.18
2022-08-01T23:31:17.524Z,7.30
2022-08-01T23:34:20.242Z,7.07
2022-08-01T23:37:23.384Z,9.65
2022-08-01T23:40:25.990Z,7.72
2022-08-01T23:43:28.079Z,6.28
2022-08-01T23:46:30.538Z,5.13
2022-08-01T23:49:33.543Z,6.00
2022-08-01T23:52:56.569Z,5.65
2022-08-01T23:56:02.750Z,5.40
2022-08-01T23:59:06.405Z,5.88
